sensor_id;sensor_type;location;lat;lon;timestamp;P1;durP1;ratioP1;P2;durP2;ratioP2
64065;SDS011;50318;54.760;9.408;2022-09-25T00:00:12;36.83;;;8.73;;
64065;SDS011;50318;54.760;9.408;2022-09-25T00:02:38;29.95;;;8.55;;
64065;SDS011;50318;54.760;9.408;2022-09-25T00:05:04;57.20;;;9.73;;
64065;SDS011;50318;54.760;9.408;2022-09-25T00:07:33;52.38;;;11.00;;
64065;SDS011;50318;54.760;9.408;2022-09-25T00:09:58;86.93;;;12.13;;
64065;SDS011;50318;54.760;9.408;2022-09-25T00:12:24;58.30;;;10.32;;
64065;SDS011;50318;54.760;9.408;2022-09-25T00:14:50;76.47;;;11.57;;
64065;SDS011;50318;54.760;9.408;2022-09-25T00:17:17;55.20;;;9.90;;
64065;SDS011;50318;54.760;9.408;2022-09-25T00:19:42;54.70;;;11.18;;
64065;SDS011;50318;54.760;9.408;2022-09-25T00:22:18;64.28;;;10.65;;
64065;SDS011;50318;54.760;9.408;2022-09-25T00:24:45;48.08;;;9.05;;
64065;SDS011;50318;54.760;9.408;2022-09-25T00:27:12;63.93;;;10.07;;
64065;SDS011;50318;54.760;9.408;2022-09-25T00:29:38;29.27;;;8.00;;
64065;SDS011;50318;54.760;9.408;2022-09-25T00:32:05;56.47;;;10.10;;
64065;SDS011;50318;54.760;9.408;2022-09-25T00:34:32;55.03;;;10.38;;
64065;SDS011;50318;54.760;9.408;2022-09-25T00:36:58;49.33;;;9.63;;
64065;SDS011;50318;54.760;9.408;2022-09-25T00:39:24;38.00;;;9.07;;
64065;SDS011;50318;54.760;9.408;2022-09-25T00:41:51;59.03;;;9.83;;
64065;SDS011;50318;54.760;9.408;2022-09-25T00:49:55;54.80;;;10.18;;
64065;SDS011;50318;54.760;9.408;2022-09-25T00:52:23;49.50;;;10.30;;
64065;SDS011;50318;54.760;9.408;2022-09-25T00:54:55;18.20;;;7.70;;
64065;SDS011;50318;54.760;9.408;2022-09-25T00:57:25;28.50;;;8.10;;
64065;SDS011;50318;54.760;9.408;2022-09-25T00:59:58;35.97;;;8.80;;
64065;SDS011;50318;54.760;9.408;2022-09-25T01:02:45;29.35;;;8.25;;
64065;SDS011;50318;54.760;9.408;2022-09-25T01:05:19;31.98;;;8.48;;
64065;SDS011;50318;54.760;9.408;2022-09-25T01:07:49;39.27;;;8.57;;
64065;SDS011;50318;54.760;9.408;2022-09-25T01:10:17;49.17;;;10.13;;
64065;SDS011;50318;54.760;9.408;2022-09-25T01:12:50;47.00;;;9.43;;
64065;SDS011;50318;54.760;9.408;2022-09-25T01:15:19;55.60;;;10.80;;
64065;SDS011;50318;54.760;9.408;2022-09-25T01:26:14;29.75;;;8.57;;
64065;SDS011;50318;54.760;9.408;2022-09-25T01:31:25;65.55;;;11.27;;
64065;SDS011;50318;54.760;9.408;2022-09-25T01:33:57;34.10;;;9.38;;
64065;SDS011;50318;54.760;9.408;2022-09-25T01:36:34;38.70;;;9.75;;
64065;SDS011;50318;54.760;9.408;2022-09-25T01:39:08;29.92;;;8.65;;
64065;SDS011;50318;54.760;9.408;2022-09-25T01:41:59;30.48;;;8.95;;
64065;SDS011;50318;54.760;9.408;2022-09-25T01:44:35;31.23;;;10.63;;
64065;SDS011;50318;54.760;9.408;2022-09-25T01:47:08;32.05;;;9.82;;
64065;SDS011;50318;54.760;9.408;2022-09-25T01:49:43;51.25;;;11.60;;
64065;SDS011;50318;54.760;9.408;2022-09-25T01:52:20;60.70;;;11.18;;
64065;SDS011;50318;54.760;9.408;2022-09-25T01:54:53;57.95;;;11.63;;
64065;SDS011;50318;54.760;9.408;2022-09-25T01:57:31;52.22;;;12.55;;
64065;SDS011;50318;54.760;9.408;2022-09-25T02:00:13;43.20;;;10.70;;
64065;SDS011;50318;54.760;9.408;2022-09-25T02:02:44;36.63;;;11.23;;
64065;SDS011;50318;54.760;9.408;2022-09-25T02:05:25;58.92;;;12.57;;
64065;SDS011;50318;54.760;9.408;2022-09-25T02:08:06;48.63;;;12.27;;
64065;SDS011;50318;54.760;9.408;2022-09-25T02:10:35;38.70;;;11.38;;
64065;SDS011;50318;54.760;9.408;2022-09-25T02:13:11;78.47;;;13.90;;
64065;SDS011;50318;54.760;9.408;2022-09-25T02:15:41;52.92;;;12.82;;
64065;SDS011;50318;54.760;9.408;2022-09-25T02:18:11;53.28;;;12.75;;
64065;SDS011;50318;54.760;9.408;2022-09-25T02:21:00;49.35;;;12.60;;
64065;SDS011;50318;54.760;9.408;2022-09-25T02:26:27;49.75;;;12.70;;
64065;SDS011;50318;54.760;9.408;2022-09-25T02:28:59;67.43;;;13.43;;
64065;SDS011;50318;54.760;9.408;2022-09-25T02:31:35;60.72;;;13.18;;
64065;SDS011;50318;54.760;9.408;2022-09-25T02:34:05;44.28;;;12.23;;
64065;SDS011;50318;54.760;9.408;2022-09-25T02:36:31;60.10;;;14.05;;
64065;SDS011;50318;54.760;9.408;2022-09-25T02:38:59;60.25;;;13.68;;
64065;SDS011;50318;54.760;9.408;2022-09-25T02:46:51;49.03;;;13.95;;
64065;SDS011;50318;54.760;9.408;2022-09-25T02:55:23;65.30;;;15.15;;
64065;SDS011;50318;54.760;9.408;2022-09-25T03:00:51;92.72;;;16.75;;
64065;SDS011;50318;54.760;9.408;2022-09-25T03:03:20;69.70;;;16.92;;
64065;SDS011;50318;54.760;9.408;2022-09-25T03:05:51;64.88;;;15.73;;
64065;SDS011;50318;54.760;9.408;2022-09-25T03:08:21;58.10;;;16.88;;
64065;SDS011;50318;54.760;9.408;2022-09-25T03:11:03;72.57;;;17.98;;
64065;SDS011;50318;54.760;9.408;2022-09-25T03:13:30;71.88;;;17.60;;
64065;SDS011;50318;54.760;9.408;2022-09-25T03:15:59;71.53;;;18.20;;
64065;SDS011;50318;54.760;9.408;2022-09-25T03:18:29;76.53;;;18.20;;
64065;SDS011;50318;54.760;9.408;2022-09-25T03:20:56;64.97;;;18.00;;
64065;SDS011;50318;54.760;9.408;2022-09-25T03:23:22;79.83;;;19.70;;
64065;SDS011;50318;54.760;9.408;2022-09-25T03:25:48;58.50;;;17.30;;
64065;SDS011;50318;54.760;9.408;2022-09-25T03:28:14;39.17;;;17.23;;
64065;SDS011;50318;54.760;9.408;2022-09-25T03:30:40;53.00;;;19.27;;
64065;SDS011;50318;54.760;9.408;2022-09-25T03:33:06;62.47;;;19.50;;
64065;SDS011;50318;54.760;9.408;2022-09-25T03:35:35;63.75;;;19.88;;
64065;SDS011;50318;54.760;9.408;2022-09-25T03:38:01;35.73;;;17.57;;
64065;SDS011;50318;54.760;9.408;2022-09-25T03:40:28;65.60;;;19.85;;
64065;SDS011;50318;54.760;9.408;2022-09-25T03:42:53;70.13;;;19.35;;
64065;SDS011;50318;54.760;9.408;2022-09-25T03:45:19;52.20;;;18.53;;
64065;SDS011;50318;54.760;9.408;2022-09-25T03:47:45;75.70;;;20.75;;
64065;SDS011;50318;54.760;9.408;2022-09-25T03:50:14;52.35;;;18.88;;
64065;SDS011;50318;54.760;9.408;2022-09-25T03:52:42;65.60;;;20.03;;
64065;SDS011;50318;54.760;9.408;2022-09-25T03:55:08;74.83;;;21.57;;
64065;SDS011;50318;54.760;9.408;2022-09-25T03:57:36;78.50;;;21.10;;
64065;SDS011;50318;54.760;9.408;2022-09-25T04:00:26;71.60;;;21.80;;
64065;SDS011;50318;54.760;9.408;2022-09-25T04:03:17;71.03;;;21.52;;
64065;SDS011;50318;54.760;9.408;2022-09-25T04:05:46;75.22;;;21.45;;
64065;SDS011;50318;54.760;9.408;2022-09-25T04:08:15;58.97;;;19.83;;
64065;SDS011;50318;54.760;9.408;2022-09-25T04:10:41;90.23;;;22.67;;
64065;SDS011;50318;54.760;9.408;2022-09-25T04:13:08;75.30;;;21.00;;
64065;SDS011;50318;54.760;9.408;2022-09-25T04:15:37;71.30;;;21.03;;
64065;SDS011;50318;54.760;9.408;2022-09-25T04:18:09;54.50;;;20.58;;
64065;SDS011;50318;54.760;9.408;2022-09-25T04:20:35;74.50;;;23.47;;
64065;SDS011;50318;54.760;9.408;2022-09-25T04:23:02;52.88;;;22.77;;
64065;SDS011;50318;54.760;9.408;2022-09-25T04:25:28;63.63;;;21.80;;
64065;SDS011;50318;54.760;9.408;2022-09-25T04:27:55;81.97;;;23.30;;
64065;SDS011;50318;54.760;9.408;2022-09-25T04:30:21;79.77;;;24.47;;
64065;SDS011;50318;54.760;9.408;2022-09-25T04:32:47;64.05;;;23.80;;
64065;SDS011;50318;54.760;9.408;2022-09-25T04:35:32;83.32;;;25.85;;
64065;SDS011;50318;54.760;9.408;2022-09-25T04:38:03;48.42;;;22.92;;
64065;SDS011;50318;54.760;9.408;2022-09-25T04:40:29;59.88;;;24.42;;
64065;SDS011;50318;54.760;9.408;2022-09-25T04:42:56;60.92;;;25.63;;
64065;SDS011;50318;54.760;9.408;2022-09-25T04:45:26;81.03;;;27.75;;
64065;SDS011;50318;54.760;9.408;2022-09-25T04:47:59;83.00;;;28.73;;
64065;SDS011;50318;54.760;9.408;2022-09-25T04:50:26;79.23;;;27.77;;
64065;SDS011;50318;54.760;9.408;2022-09-25T04:53:20;57.33;;;26.77;;
64065;SDS011;50318;54.760;9.408;2022-09-25T04:55:59;70.10;;;28.73;;
64065;SDS011;50318;54.760;9.408;2022-09-25T04:58:29;93.00;;;30.77;;
64065;SDS011;50318;54.760;9.408;2022-09-25T05:00:59;68.97;;;29.05;;
64065;SDS011;50318;54.760;9.408;2022-09-25T05:03:27;57.90;;;28.53;;
64065;SDS011;50318;54.760;9.408;2022-09-25T05:05:54;85.03;;;29.65;;
64065;SDS011;50318;54.760;9.408;2022-09-25T05:08:38;82.55;;;32.28;;
64065;SDS011;50318;54.760;9.408;2022-09-25T05:11:03;70.70;;;29.20;;
64065;SDS011;50318;54.760;9.408;2022-09-25T05:14:01;62.33;;;28.35;;
64065;SDS011;50318;54.760;9.408;2022-09-25T05:16:27;78.00;;;29.80;;
64065;SDS011;50318;54.760;9.408;2022-09-25T05:18:55;53.47;;;29.13;;
64065;SDS011;50318;54.760;9.408;2022-09-25T05:21:21;64.40;;;30.98;;
64065;SDS011;50318;54.760;9.408;2022-09-25T05:23:47;47.42;;;28.85;;
64065;SDS011;50318;54.760;9.408;2022-09-25T05:26:12;61.23;;;31.13;;
64065;SDS011;50318;54.760;9.408;2022-09-25T05:28:39;67.22;;;31.75;;
64065;SDS011;50318;54.760;9.408;2022-09-25T05:31:04;68.78;;;30.75;;
64065;SDS011;50318;54.760;9.408;2022-09-25T05:33:31;66.50;;;31.20;;
64065;SDS011;50318;54.760;9.408;2022-09-25T05:36:11;39.70;;;28.17;;
64065;SDS011;50318;54.760;9.408;2022-09-25T05:38:37;60.35;;;30.42;;
64065;SDS011;50318;54.760;9.408;2022-09-25T05:41:07;63.10;;;29.75;;
64065;SDS011;50318;54.760;9.408;2022-09-25T05:43:38;84.45;;;31.77;;
64065;SDS011;50318;54.760;9.408;2022-09-25T05:46:09;51.65;;;28.13;;
64065;SDS011;50318;54.760;9.408;2022-09-25T05:48:35;57.47;;;29.77;;
64065;SDS011;50318;54.760;9.408;2022-09-25T05:51:01;54.88;;;29.70;;
64065;SDS011;50318;54.760;9.408;2022-09-25T05:53:30;65.68;;;29.30;;
64065;SDS011;50318;54.760;9.408;2022-09-25T05:55:59;50.67;;;27.93;;
64065;SDS011;50318;54.760;9.408;2022-09-25T05:58:27;55.70;;;27.45;;
64065;SDS011;50318;54.760;9.408;2022-09-25T06:00:54;62.20;;;30.40;;
64065;SDS011;50318;54.760;9.408;2022-09-25T06:03:24;62.93;;;29.80;;
64065;SDS011;50318;54.760;9.408;2022-09-25T06:05:54;48.53;;;28.77;;
64065;SDS011;50318;54.760;9.408;2022-09-25T06:08:24;65.50;;;28.23;;
64065;SDS011;50318;54.760;9.408;2022-09-25T06:10:52;73.20;;;30.10;;
64065;SDS011;50318;54.760;9.408;2022-09-25T06:13:21;84.47;;;29.08;;
64065;SDS011;50318;54.760;9.408;2022-09-25T06:15:49;56.53;;;27.25;;
64065;SDS011;50318;54.760;9.408;2022-09-25T06:18:17;73.55;;;29.02;;
64065;SDS011;50318;54.760;9.408;2022-09-25T06:20:45;49.58;;;26.42;;
64065;SDS011;50318;54.760;9.408;2022-09-25T06:23:11;56.72;;;26.35;;
64065;SDS011;50318;54.760;9.408;2022-09-25T06:25:40;51.28;;;24.65;;
64065;SDS011;50318;54.760;9.408;2022-09-25T06:28:09;64.55;;;25.48;;
64065;SDS011;50318;54.760;9.408;2022-09-25T06:30:36;69.83;;;25.03;;
64065;SDS011;50318;54.760;9.408;2022-09-25T06:33:04;84.03;;;26.88;;
64065;SDS011;50318;54.760;9.408;2022-09-25T06:35:41;82.37;;;27.60;;
64065;SDS011;50318;54.760;9.408;2022-09-25T06:38:13;43.83;;;23.50;;
64065;SDS011;50318;54.760;9.408;2022-09-25T06:40:41;64.07;;;25.48;;
64065;SDS011;50318;54.760;9.408;2022-09-25T06:43:09;47.05;;;23.35;;
64065;SDS011;50318;54.760;9.408;2022-09-25T06:45:36;48.35;;;21.45;;
64065;SDS011;50318;54.760;9.408;2022-09-25T06:48:06;50.13;;;20.58;;
64065;SDS011;50318;54.760;9.408;2022-09-25T06:53:08;65.00;;;22.00;;
64065;SDS011;50318;54.760;9.408;2022-09-25T06:55:56;54.28;;;20.90;;
64065;SDS011;50318;54.760;9.408;2022-09-25T06:58:23;54.90;;;21.27;;
64065;SDS011;50318;54.760;9.408;2022-09-25T07:00:54;55.90;;;22.13;;
64065;SDS011;50318;54.760;9.408;2022-09-25T07:03:21;47.83;;;20.98;;
64065;SDS011;50318;54.760;9.408;2022-09-25T07:06:06;64.05;;;22.23;;
64065;SDS011;50318;54.760;9.408;2022-09-25T07:08:46;60.10;;;22.38;;
64065;SDS011;50318;54.760;9.408;2022-09-25T07:11:31;41.65;;;19.77;;
64065;SDS011;50318;54.760;9.408;2022-09-25T07:14:02;57.28;;;20.80;;
64065;SDS011;50318;54.760;9.408;2022-09-25T07:16:28;54.05;;;20.27;;
64065;SDS011;50318;54.760;9.408;2022-09-25T07:18:55;61.85;;;20.60;;
64065;SDS011;50318;54.760;9.408;2022-09-25T07:21:24;59.70;;;22.02;;
64065;SDS011;50318;54.760;9.408;2022-09-25T07:23:53;55.73;;;20.37;;
64065;SDS011;50318;54.760;9.408;2022-09-25T07:26:20;49.15;;;19.20;;
64065;SDS011;50318;54.760;9.408;2022-09-25T07:28:55;41.03;;;20.10;;
64065;SDS011;50318;54.760;9.408;2022-09-25T07:31:24;52.50;;;20.40;;
64065;SDS011;50318;54.760;9.408;2022-09-25T07:33:51;40.28;;;19.35;;
64065;SDS011;50318;54.760;9.408;2022-09-25T07:36:18;36.20;;;18.90;;
64065;SDS011;50318;54.760;9.408;2022-09-25T07:38:51;51.77;;;20.60;;
64065;SDS011;50318;54.760;9.408;2022-09-25T07:41:18;47.15;;;21.80;;
64065;SDS011;50318;54.760;9.408;2022-09-25T07:43:50;32.80;;;18.95;;
64065;SDS011;50318;54.760;9.408;2022-09-25T07:46:34;42.90;;;21.38;;
64065;SDS011;50318;54.760;9.408;2022-09-25T07:49:00;47.37;;;22.70;;
64065;SDS011;50318;54.760;9.408;2022-09-25T07:51:26;30.05;;;18.90;;
64065;SDS011;50318;54.760;9.408;2022-09-25T07:53:51;36.37;;;20.23;;
64065;SDS011;50318;54.760;9.408;2022-09-25T07:56:17;53.53;;;20.43;;
64065;SDS011;50318;54.760;9.408;2022-09-25T07:58:43;36.15;;;19.25;;
64065;SDS011;50318;54.760;9.408;2022-09-25T08:01:10;54.20;;;18.57;;
64065;SDS011;50318;54.760;9.408;2022-09-25T08:03:37;48.90;;;18.90;;
64065;SDS011;50318;54.760;9.408;2022-09-25T08:06:04;52.38;;;19.73;;
64065;SDS011;50318;54.760;9.408;2022-09-25T08:08:34;27.92;;;16.67;;
64065;SDS011;50318;54.760;9.408;2022-09-25T08:11:03;54.28;;;17.25;;
64065;SDS011;50318;54.760;9.408;2022-09-25T08:13:32;61.80;;;15.13;;
64065;SDS011;50318;54.760;9.408;2022-09-25T08:16:01;42.45;;;14.55;;
64065;SDS011;50318;54.760;9.408;2022-09-25T08:18:28;56.00;;;14.75;;
64065;SDS011;50318;54.760;9.408;2022-09-25T08:20:56;58.08;;;13.80;;
64065;SDS011;50318;54.760;9.408;2022-09-25T08:23:46;27.48;;;10.88;;
64065;SDS011;50318;54.760;9.408;2022-09-25T08:26:14;31.90;;;9.93;;
64065;SDS011;50318;54.760;9.408;2022-09-25T08:28:40;42.95;;;9.80;;
64065;SDS011;50318;54.760;9.408;2022-09-25T08:31:06;35.20;;;9.63;;
64065;SDS011;50318;54.760;9.408;2022-09-25T08:33:51;26.73;;;8.33;;
64065;SDS011;50318;54.760;9.408;2022-09-25T08:36:24;30.90;;;8.07;;
64065;SDS011;50318;54.760;9.408;2022-09-25T08:38:50;29.10;;;6.70;;
64065;SDS011;50318;54.760;9.408;2022-09-25T08:41:27;19.90;;;6.03;;
64065;SDS011;50318;54.760;9.408;2022-09-25T08:46:46;28.27;;;6.47;;
64065;SDS011;50318;54.760;9.408;2022-09-25T08:49:34;30.33;;;6.63;;
64065;SDS011;50318;54.760;9.408;2022-09-25T08:52:04;37.30;;;6.65;;
64065;SDS011;50318;54.760;9.408;2022-09-25T08:54:34;36.80;;;6.40;;
64065;SDS011;50318;54.760;9.408;2022-09-25T08:57:09;22.20;;;4.93;;
64065;SDS011;50318;54.760;9.408;2022-09-25T08:59:45;42.50;;;5.65;;
64065;SDS011;50318;54.760;9.408;2022-09-25T09:02:28;29.40;;;5.57;;
64065;SDS011;50318;54.760;9.408;2022-09-25T09:05:04;35.40;;;5.70;;
64065;SDS011;50318;54.760;9.408;2022-09-25T09:07:39;24.90;;;4.60;;
64065;SDS011;50318;54.760;9.408;2022-09-25T09:10:28;34.73;;;4.87;;
64065;SDS011;50318;54.760;9.408;2022-09-25T09:13:02;21.40;;;3.90;;
64065;SDS011;50318;54.760;9.408;2022-09-25T09:15:39;24.87;;;4.73;;
64065;SDS011;50318;54.760;9.408;2022-09-25T09:18:24;31.25;;;6.07;;
64065;SDS011;50318;54.760;9.408;2022-09-25T09:23:19;50.63;;;5.82;;
64065;SDS011;50318;54.760;9.408;2022-09-25T09:44:41;26.48;;;3.88;;
64065;SDS011;50318;54.760;9.408;2022-09-25T09:49:43;27.10;;;2.97;;
64065;SDS011;50318;54.760;9.408;2022-09-25T09:52:19;23.73;;;2.97;;
64065;SDS011;50318;54.760;9.408;2022-09-25T09:54:48;23.30;;;2.80;;
64065;SDS011;50318;54.760;9.408;2022-09-25T09:57:22;19.73;;;3.03;;
64065;SDS011;50318;54.760;9.408;2022-09-25T10:00:13;54.10;;;4.20;;
64065;SDS011;50318;54.760;9.408;2022-09-25T10:07:42;17.65;;;2.88;;
64065;SDS011;50318;54.760;9.408;2022-09-25T10:10:13;27.85;;;3.17;;
64065;SDS011;50318;54.760;9.408;2022-09-25T10:12:41;68.57;;;4.63;;
64065;SDS011;50318;54.760;9.408;2022-09-25T10:15:30;35.00;;;3.80;;
64065;SDS011;50318;54.760;9.408;2022-09-25T10:18:20;44.78;;;4.07;;
64065;SDS011;50318;54.760;9.408;2022-09-25T10:20:54;39.45;;;3.45;;
64065;SDS011;50318;54.760;9.408;2022-09-25T10:28:57;29.17;;;2.83;;
64065;SDS011;50318;54.760;9.408;2022-09-25T10:31:28;23.67;;;2.80;;
64065;SDS011;50318;54.760;9.408;2022-09-25T10:34:05;64.10;;;4.53;;
64065;SDS011;50318;54.760;9.408;2022-09-25T10:37:13;20.20;;;2.58;;
64065;SDS011;50318;54.760;9.408;2022-09-25T10:39:58;39.42;;;3.20;;
64065;SDS011;50318;54.760;9.408;2022-09-25T10:42:39;20.17;;;2.50;;
64065;SDS011;50318;54.760;9.408;2022-09-25T10:45:25;27.63;;;2.85;;
64065;SDS011;50318;54.760;9.408;2022-09-25T10:47:54;17.05;;;2.28;;
64065;SDS011;50318;54.760;9.408;2022-09-25T10:50:38;29.23;;;2.65;;
64065;SDS011;50318;54.760;9.408;2022-09-25T10:53:04;49.35;;;2.97;;
64065;SDS011;50318;54.760;9.408;2022-09-25T10:55:35;27.48;;;2.28;;
64065;SDS011;50318;54.760;9.408;2022-09-25T11:00:56;27.30;;;2.67;;
64065;SDS011;50318;54.760;9.408;2022-09-25T11:03:33;52.05;;;3.92;;
64065;SDS011;50318;54.760;9.408;2022-09-25T11:06:04;25.60;;;2.87;;
64065;SDS011;50318;54.760;9.408;2022-09-25T11:08:32;27.35;;;2.83;;
64065;SDS011;50318;54.760;9.408;2022-09-25T11:11:02;30.92;;;3.17;;
64065;SDS011;50318;54.760;9.408;2022-09-25T11:13:30;8.23;;;1.60;;
64065;SDS011;50318;54.760;9.408;2022-09-25T11:16:14;37.60;;;2.65;;
64065;SDS011;50318;54.760;9.408;2022-09-25T11:32:44;51.00;;;3.92;;
64065;SDS011;50318;54.760;9.408;2022-09-25T11:47:17;24.17;;;2.28;;
64065;SDS011;50318;54.760;9.408;2022-09-25T11:49:50;21.95;;;2.25;;
64065;SDS011;50318;54.760;9.408;2022-09-25T11:57:25;6.50;;;1.38;;
64065;SDS011;50318;54.760;9.408;2022-09-25T12:21:35;26.92;;;3.67;;
64065;SDS011;50318;54.760;9.408;2022-09-25T12:27:15;18.60;;;2.23;;
64065;SDS011;50318;54.760;9.408;2022-09-25T12:41:09;44.70;;;3.27;;
64065;SDS011;50318;54.760;9.408;2022-09-25T12:46:45;18.33;;;1.95;;
64065;SDS011;50318;54.760;9.408;2022-09-25T12:52:00;47.30;;;3.33;;
64065;SDS011;50318;54.760;9.408;2022-09-25T12:54:45;37.47;;;3.50;;
64065;SDS011;50318;54.760;9.408;2022-09-25T13:00:05;31.48;;;3.20;;
64065;SDS011;50318;54.760;9.408;2022-09-25T13:02:47;21.05;;;2.08;;
64065;SDS011;50318;54.760;9.408;2022-09-25T13:05:26;15.80;;;1.83;;
64065;SDS011;50318;54.760;9.408;2022-09-25T13:08:09;29.30;;;3.13;;
64065;SDS011;50318;54.760;9.408;2022-09-25T13:13:41;55.95;;;3.80;;
64065;SDS011;50318;54.760;9.408;2022-09-25T13:16:13;27.70;;;2.13;;
64065;SDS011;50318;54.760;9.408;2022-09-25T13:18:47;29.37;;;2.43;;
64065;SDS011;50318;54.760;9.408;2022-09-25T13:21:34;18.80;;;2.10;;
64065;SDS011;50318;54.760;9.408;2022-09-25T13:24:03;28.55;;;2.67;;
64065;SDS011;50318;54.760;9.408;2022-09-25T13:26:52;24.33;;;2.47;;
64065;SDS011;50318;54.760;9.408;2022-09-25T13:29:31;33.17;;;3.07;;
64065;SDS011;50318;54.760;9.408;2022-09-25T13:34:38;20.30;;;1.88;;
64065;SDS011;50318;54.760;9.408;2022-09-25T13:37:06;19.33;;;2.30;;
64065;SDS011;50318;54.760;9.408;2022-09-25T13:39:36;43.85;;;3.20;;
64065;SDS011;50318;54.760;9.408;2022-09-25T13:42:25;29.73;;;2.75;;
64065;SDS011;50318;54.760;9.408;2022-09-25T13:50:32;16.60;;;2.15;;
64065;SDS011;50318;54.760;9.408;2022-09-25T13:58:24;29.83;;;2.58;;
64065;SDS011;50318;54.760;9.408;2022-09-25T14:00:52;13.40;;;1.92;;
64065;SDS011;50318;54.760;9.408;2022-09-25T14:06:19;43.75;;;3.28;;
64065;SDS011;50318;54.760;9.408;2022-09-25T14:08:48;26.85;;;2.97;;
64065;SDS011;50318;54.760;9.408;2022-09-25T14:11:21;20.98;;;2.20;;
64065;SDS011;50318;54.760;9.408;2022-09-25T14:13:51;24.05;;;2.58;;
64065;SDS011;50318;54.760;9.408;2022-09-25T14:16:25;17.35;;;2.20;;
64065;SDS011;50318;54.760;9.408;2022-09-25T14:18:57;31.60;;;3.13;;
64065;SDS011;50318;54.760;9.408;2022-09-25T14:21:29;19.13;;;2.37;;
64065;SDS011;50318;54.760;9.408;2022-09-25T14:24:15;16.45;;;2.45;;
64065;SDS011;50318;54.760;9.408;2022-09-25T14:26:44;23.58;;;2.25;;
64065;SDS011;50318;54.760;9.408;2022-09-25T14:29:16;25.52;;;2.42;;
64065;SDS011;50318;54.760;9.408;2022-09-25T14:47:56;27.60;;;2.97;;
64065;SDS011;50318;54.760;9.408;2022-09-25T14:50:25;22.17;;;2.55;;
64065;SDS011;50318;54.760;9.408;2022-09-25T14:52:55;31.42;;;2.90;;
64065;SDS011;50318;54.760;9.408;2022-09-25T14:55:24;44.22;;;4.28;;
64065;SDS011;50318;54.760;9.408;2022-09-25T14:57:59;23.73;;;3.63;;
64065;SDS011;50318;54.760;9.408;2022-09-25T15:00:27;20.30;;;3.50;;
64065;SDS011;50318;54.760;9.408;2022-09-25T15:03:01;26.15;;;3.47;;
64065;SDS011;50318;54.760;9.408;2022-09-25T15:05:30;28.45;;;4.93;;
64065;SDS011;50318;54.760;9.408;2022-09-25T15:07:59;43.90;;;3.75;;
64065;SDS011;50318;54.760;9.408;2022-09-25T15:10:37;11.50;;;1.63;;
64065;SDS011;50318;54.760;9.408;2022-09-25T15:15:52;38.35;;;11.13;;
64065;SDS011;50318;54.760;9.408;2022-09-25T15:18:42;20.27;;;2.40;;
64065;SDS011;50318;54.760;9.408;2022-09-25T15:21:20;30.63;;;2.60;;
64065;SDS011;50318;54.760;9.408;2022-09-25T15:23:51;43.55;;;4.15;;
64065;SDS011;50318;54.760;9.408;2022-09-25T15:26:19;26.50;;;2.70;;
64065;SDS011;50318;54.760;9.408;2022-09-25T15:28:46;30.13;;;3.17;;
64065;SDS011;50318;54.760;9.408;2022-09-25T15:31:12;27.73;;;10.45;;
64065;SDS011;50318;54.760;9.408;2022-09-25T15:33:38;26.73;;;7.40;;
64065;SDS011;50318;54.760;9.408;2022-09-25T15:38:53;32.25;;;3.13;;
64065;SDS011;50318;54.760;9.408;2022-09-25T15:41:21;24.17;;;2.53;;
64065;SDS011;50318;54.760;9.408;2022-09-25T15:43:50;30.23;;;3.07;;
64065;SDS011;50318;54.760;9.408;2022-09-25T15:49:15;21.90;;;2.47;;
64065;SDS011;50318;54.760;9.408;2022-09-25T15:51:50;19.63;;;2.30;;
64065;SDS011;50318;54.760;9.408;2022-09-25T15:57:00;24.70;;;2.53;;
64065;SDS011;50318;54.760;9.408;2022-09-25T15:59:40;25.38;;;2.33;;
64065;SDS011;50318;54.760;9.408;2022-09-25T16:02:31;33.95;;;3.20;;
64065;SDS011;50318;54.760;9.408;2022-09-25T16:05:26;45.08;;;3.47;;
64065;SDS011;50318;54.760;9.408;2022-09-25T16:08:40;15.18;;;1.98;;
64065;SDS011;50318;54.760;9.408;2022-09-25T16:13:33;38.20;;;3.42;;
64065;SDS011;50318;54.760;9.408;2022-09-25T16:16:03;20.55;;;2.30;;
64065;SDS011;50318;54.760;9.408;2022-09-25T16:18:40;17.23;;;2.47;;
64065;SDS011;50318;54.760;9.408;2022-09-25T16:21:18;49.90;;;3.73;;
64065;SDS011;50318;54.760;9.408;2022-09-25T16:24:16;28.83;;;3.05;;
64065;SDS011;50318;54.760;9.408;2022-09-25T16:26:44;17.98;;;2.08;;
64065;SDS011;50318;54.760;9.408;2022-09-25T16:31:38;33.67;;;3.13;;
64065;SDS011;50318;54.760;9.408;2022-09-25T16:34:06;18.83;;;2.33;;
64065;SDS011;50318;54.760;9.408;2022-09-25T16:36:40;31.85;;;2.83;;
64065;SDS011;50318;54.760;9.408;2022-09-25T16:41:35;15.65;;;1.92;;
64065;SDS011;50318;54.760;9.408;2022-09-25T16:47:13;35.05;;;3.05;;
64065;SDS011;50318;54.760;9.408;2022-09-25T16:49:45;33.50;;;3.47;;
64065;SDS011;50318;54.760;9.408;2022-09-25T16:52:16;68.82;;;4.97;;
64065;SDS011;50318;54.760;9.408;2022-09-25T16:54:51;38.60;;;3.58;;
64065;SDS011;50318;54.760;9.408;2022-09-25T16:57:22;28.63;;;3.45;;
64065;SDS011;50318;54.760;9.408;2022-09-25T16:59:49;30.57;;;3.53;;
64065;SDS011;50318;54.760;9.408;2022-09-25T17:02:37;38.50;;;3.47;;
64065;SDS011;50318;54.760;9.408;2022-09-25T17:05:14;51.90;;;4.95;;
64065;SDS011;50318;54.760;9.408;2022-09-25T17:07:47;29.23;;;4.25;;
64065;SDS011;50318;54.760;9.408;2022-09-25T17:10:15;51.65;;;5.43;;
64065;SDS011;50318;54.760;9.408;2022-09-25T17:12:44;38.42;;;5.03;;
64065;SDS011;50318;54.760;9.408;2022-09-25T17:15:18;31.70;;;5.27;;
64065;SDS011;50318;54.760;9.408;2022-09-25T17:17:45;37.45;;;5.43;;
64065;SDS011;50318;54.760;9.408;2022-09-25T17:20:14;31.73;;;3.70;;
64065;SDS011;50318;54.760;9.408;2022-09-25T17:22:40;29.57;;;4.13;;
64065;SDS011;50318;54.760;9.408;2022-09-25T17:25:41;15.15;;;2.72;;
64065;SDS011;50318;54.760;9.408;2022-09-25T17:28:10;29.23;;;3.97;;
64065;SDS011;50318;54.760;9.408;2022-09-25T17:30:37;30.87;;;3.27;;
64065;SDS011;50318;54.760;9.408;2022-09-25T17:33:04;32.25;;;3.70;;
64065;SDS011;50318;54.760;9.408;2022-09-25T17:36:00;28.60;;;3.08;;
64065;SDS011;50318;54.760;9.408;2022-09-25T17:38:30;29.05;;;3.50;;
64065;SDS011;50318;54.760;9.408;2022-09-25T17:40:59;37.35;;;3.95;;
64065;SDS011;50318;54.760;9.408;2022-09-25T17:43:31;40.33;;;3.30;;
64065;SDS011;50318;54.760;9.408;2022-09-25T17:45:58;44.63;;;4.18;;
64065;SDS011;50318;54.760;9.408;2022-09-25T17:48:28;43.00;;;4.28;;
64065;SDS011;50318;54.760;9.408;2022-09-25T17:50:56;35.45;;;3.38;;
64065;SDS011;50318;54.760;9.408;2022-09-25T17:53:26;24.97;;;2.63;;
64065;SDS011;50318;54.760;9.408;2022-09-25T17:55:55;28.10;;;3.13;;
64065;SDS011;50318;54.760;9.408;2022-09-25T17:58:23;39.05;;;4.25;;
64065;SDS011;50318;54.760;9.408;2022-09-25T18:01:10;62.53;;;4.07;;
64065;SDS011;50318;54.760;9.408;2022-09-25T18:03:38;46.47;;;4.73;;
64065;SDS011;50318;54.760;9.408;2022-09-25T18:06:04;40.73;;;3.33;;
64065;SDS011;50318;54.760;9.408;2022-09-25T18:08:30;37.53;;;3.27;;
64065;SDS011;50318;54.760;9.408;2022-09-25T18:11:08;53.33;;;4.43;;
64065;SDS011;50318;54.760;9.408;2022-09-25T18:13:35;41.17;;;3.50;;
64065;SDS011;50318;54.760;9.408;2022-09-25T18:16:01;54.17;;;4.57;;
64065;SDS011;50318;54.760;9.408;2022-09-25T18:18:28;47.97;;;3.93;;
64065;SDS011;50318;54.760;9.408;2022-09-25T18:21:15;38.70;;;2.90;;
64065;SDS011;50318;54.760;9.408;2022-09-25T18:24:00;29.63;;;2.93;;
64065;SDS011;50318;54.760;9.408;2022-09-25T18:26:26;42.22;;;3.08;;